createdAt,value
2019-03-05T00:04:20.638Z,100214.67
2019-03-05T00:09:22.620Z,100222.67
2019-03-05T00:14:24.175Z,100210.39
2019-03-05T00:19:25.773Z,100209.13
2019-03-05T00:24:58.954Z,100202.81
2019-03-05T00:30:48.528Z,100190.89
2019-03-05T00:36:17.434Z,100201.69
2019-03-05T00:41:56.000Z,100194.52
2019-03-05T00:47:27.554Z,100195.06
2019-03-05T00:53:11.090Z,100206.13
2019-03-05T00:58:23.259Z,100208.83
2019-03-05T01:03:59.958Z,100216.20
2019-03-05T01:09:03.345Z,100211.11
2019-03-05T01:14:04.874Z,100235.58
2019-03-05T01:19:06.915Z,100236.02
2019-03-05T01:24:08.454Z,100231.97
2019-03-05T01:29:10.061Z,100248.09
2019-03-05T01:34:12.080Z,100243.11
2019-03-05T01:39:13.962Z,100241.07
2019-03-05T01:44:15.618Z,100241.16
2019-03-05T01:49:17.267Z,100240.25
2019-03-05T01:54:18.797Z,100243.97
2019-03-05T01:59:20.429Z,100239.20
2019-03-05T02:04:22.379Z,100240.85
2019-03-05T02:09:23.916Z,100250.51
2019-03-05T02:14:25.951Z,100238.03
2019-03-05T02:19:56.352Z,100238.85
2019-03-05T02:25:41.212Z,100235.69
2019-03-05T02:31:04.050Z,100243.92
2019-03-05T02:36:14.448Z,100246.00
2019-03-05T02:42:02.892Z,100247.97
2019-03-05T02:47:35.564Z,100245.64
2019-03-05T02:53:18.118Z,100238.56
2019-03-05T02:58:18.628Z,100246.84
2019-03-05T03:03:20.205Z,100245.69
2019-03-05T03:08:21.822Z,100239.38
2019-03-05T03:13:23.446Z,100232.02
2019-03-05T03:18:25.009Z,100233.84
2019-03-05T03:23:27.056Z,100235.32
2019-03-05T03:28:28.706Z,100232.48
2019-03-05T03:33:30.540Z,100231.62
2019-03-05T03:38:32.085Z,100220.64
2019-03-05T03:43:33.650Z,100232.02
2019-03-05T03:48:35.181Z,100235.98
2019-03-05T03:53:36.757Z,100238.94
2019-03-05T03:58:38.706Z,100238.53
2019-03-05T04:03:40.238Z,100249.97
2019-03-05T04:08:41.774Z,100251.96
2019-03-05T04:13:43.378Z,100251.70
2019-03-05T04:18:44.986Z,100252.72
2019-03-05T04:23:46.873Z,100247.97
2019-03-05T04:28:48.839Z,100259.98
2019-03-05T04:33:50.878Z,100256.73
2019-03-05T04:38:52.482Z,100250.05
2019-03-05T04:43:54.052Z,100263.33
2019-03-05T04:48:56.020Z,100256.22
2019-03-05T04:53:57.606Z,100281.13
2019-03-05T04:58:59.184Z,100289.50
2019-03-05T05:04:00.726Z,100287.34
2019-03-05T05:09:03.514Z,100288.30
2019-03-05T05:14:05.096Z,100289.34
2019-03-05T05:19:06.684Z,100299.92
2019-03-05T05:24:08.239Z,100291.59
2019-03-05T05:29:09.842Z,100296.20
2019-03-05T05:34:11.384Z,100295.35
2019-03-05T05:39:52.538Z,100303.73
2019-03-05T05:44:54.453Z,100310.79
2019-03-05T05:49:56.459Z,100313.30
2019-03-05T05:54:58.015Z,100324.88
2019-03-05T05:59:59.601Z,100328.78
2019-03-05T06:05:01.555Z,100325.53
2019-03-05T06:10:03.646Z,100325.47
2019-03-05T06:15:06.087Z,100326.58
2019-03-05T06:20:08.881Z,100335.89
2019-03-05T06:25:10.819Z,100338.71
2019-03-05T06:30:13.045Z,100341.87
2019-03-05T06:35:14.639Z,100351.33
2019-03-05T06:40:16.288Z,100340.51
2019-03-05T06:45:19.981Z,100354.84
2019-03-05T06:50:21.595Z,100354.84
2019-03-05T06:55:23.264Z,100359.80
2019-03-05T07:00:25.188Z,100358.77
2019-03-05T07:06:03.949Z,100368.73
2019-03-05T07:11:14.366Z,100371.39
2019-03-05T07:16:26.943Z,100386.02
2019-03-05T07:22:03.845Z,100390.52
2019-03-05T07:27:06.282Z,100390.52
2019-03-05T07:32:07.889Z,100396.05
2019-03-05T07:37:09.909Z,100406.86
2019-03-05T07:42:11.505Z,100425.34
2019-03-05T07:47:13.119Z,100418.92
2019-03-05T07:52:14.701Z,100425.53
2019-03-05T07:57:16.420Z,100430.45
2019-03-05T08:02:18.019Z,100438.20
2019-03-05T08:07:19.695Z,100442.61
2019-03-05T08:12:53.776Z,100450.73
2019-03-05T08:17:55.406Z,100464.58
2019-03-05T08:22:57.020Z,100460.95
2019-03-05T08:27:58.648Z,100477.19
2019-03-05T08:33:00.175Z,100486.04
2019-03-05T08:38:01.700Z,100491.83
2019-03-05T08:43:03.406Z,100497.13
2019-03-05T08:48:04.941Z,100517.86
2019-03-05T08:53:06.547Z,100511.75
2019-03-05T08:58:08.418Z,100526.79
2019-03-05T09:03:09.985Z,100520.97
2019-03-05T09:08:11.562Z,100529.14
2019-03-05T09:13:13.077Z,100522.61
2019-03-05T09:18:14.892Z,100523.31
2019-03-05T09:23:16.458Z,100540.81
2019-03-05T09:28:18.146Z,100550.55
2019-03-05T09:33:21.542Z,100548.78
2019-03-05T09:38:23.422Z,100547.86
2019-03-05T09:43:24.996Z,100565.20
2019-03-05T09:48:26.654Z,100559.72
2019-03-05T09:53:28.278Z,100555.67
2019-03-05T09:58:29.880Z,100551.88
2019-03-05T10:03:31.926Z,100551.94
2019-03-05T10:08:33.551Z,100553.11
2019-03-05T10:13:35.601Z,100551.63
2019-03-05T10:18:39.305Z,100562.31
2019-03-05T10:23:40.680Z,100571.45
2019-03-05T10:28:42.350Z,100561.41
2019-03-05T10:33:44.046Z,100569.23
2019-03-05T10:38:56.636Z,100580.03
2019-03-05T10:43:49.182Z,100569.12
2019-03-05T10:48:50.798Z,100570.62
2019-03-05T10:53:52.856Z,100581.14
2019-03-05T10:58:54.522Z,100586.98
2019-03-05T11:03:56.123Z,100605.00
2019-03-05T11:08:57.680Z,100607.23
2019-03-05T11:13:59.278Z,100610.55
2019-03-05T11:19:01.364Z,100612.31
2019-03-05T11:24:03.402Z,100616.98
2019-03-05T11:29:05.059Z,100630.67
2019-03-05T11:34:06.982Z,100623.68
2019-03-05T11:39:08.597Z,100629.25
2019-03-05T11:44:10.244Z,100633.19
2019-03-05T11:49:11.904Z,100637.50
2019-03-05T11:54:13.603Z,100635.12
2019-03-05T11:59:15.557Z,100637.58
2019-03-05T12:04:17.236Z,100644.13
2019-03-05T12:09:19.342Z,100640.84
2019-03-05T12:14:20.931Z,100652.05
2019-03-05T12:19:22.745Z,100655.94
2019-03-05T12:24:25.634Z,100653.52
2019-03-05T12:29:27.398Z,100656.87
2019-03-05T12:34:28.991Z,100660.95
2019-03-05T12:39:30.701Z,100668.16
2019-03-05T12:44:32.467Z,100683.31
2019-03-05T12:49:33.997Z,100672.05
2019-03-05T12:54:35.595Z,100678.02
2019-03-05T12:59:37.240Z,100670.08
2019-03-05T13:04:38.813Z,100669.87
2019-03-05T13:09:41.483Z,100695.09
2019-03-05T13:14:43.873Z,100678.55
2019-03-05T13:19:47.998Z,100690.14
2019-03-05T13:24:50.255Z,100699.14
2019-03-05T13:29:52.683Z,100705.34
2019-03-05T13:34:54.219Z,100703.30
2019-03-05T13:39:58.217Z,100691.53
2019-03-05T13:44:59.664Z,100700.17
2019-03-05T13:50:53.011Z,100708.45
2019-03-05T13:56:21.779Z,100730.27
2019-03-05T14:01:23.344Z,100729.14
2019-03-05T14:07:11.782Z,100741.09
2019-03-05T14:12:13.661Z,100736.38
2019-03-05T14:17:15.391Z,100751.20
2019-03-05T14:22:16.955Z,100751.86
2019-03-05T14:27:18.495Z,100745.69
2019-03-05T14:32:20.450Z,100748.75
2019-03-05T14:37:22.162Z,100747.83
2019-03-05T14:42:24.023Z,100766.50
2019-03-05T14:47:25.601Z,100761.40
2019-03-05T14:52:27.254Z,100781.65
2019-03-05T14:57:28.801Z,100771.05
2019-03-05T15:02:30.527Z,100759.34
2019-03-05T15:07:32.464Z,100740.28
2019-03-05T15:12:34.757Z,100752.84
2019-03-05T15:17:36.339Z,100758.03
2019-03-05T15:22:37.956Z,100755.91
2019-03-05T15:27:39.564Z,100764.82
2019-03-05T15:32:42.791Z,100760.89
2019-03-05T15:37:44.767Z,100784.59
2019-03-05T15:42:46.334Z,100775.30
2019-03-05T15:47:47.954Z,100784.21
2019-03-05T15:52:49.681Z,100801.16
2019-03-05T15:57:51.269Z,100798.84
2019-03-05T16:02:52.844Z,100789.67
2019-03-05T16:07:56.526Z,100796.53
2019-03-05T16:12:58.179Z,100791.85
2019-03-05T16:18:01.381Z,100790.77
2019-03-05T16:23:04.252Z,100787.61
2019-03-05T16:28:07.389Z,100793.64
2019-03-05T16:33:09.267Z,100794.48
2019-03-05T16:38:10.875Z,100795.69
2019-03-05T16:43:12.432Z,100802.44
2019-03-05T16:48:14.055Z,100812.55
2019-03-05T16:53:15.620Z,100817.39
2019-03-05T16:58:17.202Z,100821.85
2019-03-05T17:03:18.733Z,100828.48
2019-03-05T17:08:20.341Z,100837.53
2019-03-05T17:13:22.138Z,100838.74
2019-03-05T17:18:24.639Z,100852.64
2019-03-05T17:23:27.125Z,100860.67
2019-03-05T17:28:28.666Z,100858.23
2019-03-05T17:33:30.704Z,100867.43
2019-03-05T17:38:32.246Z,100864.60
2019-03-05T17:43:33.949Z,100859.19
2019-03-05T17:48:35.625Z,100865.56
2019-03-05T17:53:37.267Z,100879.11
2019-03-05T17:58:39.627Z,100879.05
2019-03-05T18:03:42.283Z,100890.80
2019-03-05T18:08:44.226Z,100896.73
2019-03-05T18:13:45.837Z,100888.84
2019-03-05T18:18:47.418Z,100890.17
2019-03-05T18:23:49.017Z,100893.60
2019-03-05T18:28:50.557Z,100894.87
2019-03-05T18:33:52.124Z,100894.98
2019-03-05T18:38:54.157Z,100898.91
2019-03-05T18:43:56.083Z,100896.80
2019-03-05T18:48:57.742Z,100890.80
2019-03-05T18:53:59.406Z,100896.23
2019-03-05T18:59:01.036Z,100895.52
2019-03-05T19:04:02.711Z,100889.64
2019-03-05T19:09:04.870Z,100893.41
2019-03-05T19:14:06.492Z,100898.33
2019-03-05T19:19:08.116Z,100889.16
2019-03-05T19:24:09.698Z,100894.07
2019-03-05T19:29:12.068Z,100886.48
2019-03-05T19:34:13.709Z,100894.59
2019-03-05T19:39:15.791Z,100883.83
2019-03-05T19:44:17.569Z,100891.91
2019-03-05T19:49:19.323Z,100890.85
2019-03-05T19:54:21.039Z,100890.56
2019-03-05T19:59:22.605Z,100892.02
2019-03-05T20:04:24.296Z,100894.00
2019-03-05T20:09:25.907Z,100891.97
2019-03-05T20:14:27.778Z,100891.25
2019-03-05T20:19:29.617Z,100888.81
2019-03-05T20:24:31.575Z,100889.39
2019-03-05T20:29:33.550Z,100885.14
2019-03-05T20:34:35.596Z,100884.88
2019-03-05T20:39:37.503Z,100885.63
2019-03-05T20:44:40.114Z,100885.05
2019-03-05T20:49:42.226Z,100885.63
2019-03-05T20:54:43.869Z,100887.20
2019-03-05T20:59:45.769Z,100887.66
2019-03-05T21:04:47.429Z,100887.36
2019-03-05T21:09:49.228Z,100896.00
2019-03-05T21:14:50.926Z,100890.61
2019-03-05T21:19:52.533Z,100889.38
2019-03-05T21:24:54.176Z,100890.67
2019-03-05T21:29:55.824Z,100886.77
2019-03-05T21:34:57.492Z,100887.59
2019-03-05T21:39:59.566Z,100880.91
2019-03-05T21:45:03.976Z,100876.99
2019-03-05T21:50:07.036Z,100872.11
2019-03-05T21:55:08.954Z,100882.28
2019-03-05T22:00:19.248Z,100878.23
2019-03-05T22:05:20.798Z,100878.38
2019-03-05T22:10:22.522Z,100868.89
2019-03-05T22:15:24.604Z,100880.28
2019-03-05T22:20:26.193Z,100873.43
2019-03-05T22:25:29.017Z,100865.56
2019-03-05T22:30:31.367Z,100858.51
2019-03-05T22:35:32.950Z,100857.36
2019-03-05T22:40:34.530Z,100852.44
2019-03-05T22:45:36.797Z,100843.05
2019-03-05T22:50:38.364Z,100848.83
2019-03-05T22:55:40.342Z,100843.31
2019-03-05T23:01:05.700Z,100844.62
2019-03-05T23:06:07.992Z,100837.95
2019-03-05T23:11:09.513Z,100837.20
2019-03-05T23:16:11.102Z,100831.50
2019-03-05T23:21:12.629Z,100826.18
2019-03-05T23:26:14.243Z,100818.12
2019-03-05T23:31:15.800Z,100811.66
2019-03-05T23:36:17.315Z,100805.67
2019-03-05T23:41:18.861Z,100796.61
2019-03-05T23:46:20.524Z,100791.64
2019-03-05T23:51:22.574Z,100786.77
2019-03-05T23:56:24.184Z,100780.98
